Angoon, Alaska
Current Conditions -  °F | °C
As of 6:56 AM on Friday 19 Dec 2014 (Local Time) from PAGN Reporting Station
Light Rain Light Rain  
Wind Chill: -2°   Ceiling: 6000
Heat Index:   Visibility: 10mi
Dew Point:   Wind: 7mph
Humidity: 92%   Direction: 50°NE
Pressure: 29.33"   Gusts: NA
Location:  57.5°N, 134.59°W
Report Text: PAGN 191556Z AUTO 05006KT 10SM -RA FEW033 BKN060 02/01 A2933 RMK AO2 TSNO T00160005 BKN V SCT RAB48UPB50E51 P0000 SLP934 $
Loading
Personal Weather Stations






























Interactive Weather Map New forecast layout! Learn more

10-Day Weather Forecast

Advertisements
Track Severe Weather on mobile